Great Village, Canada
Current Conditions -  °F | °C
As of 9:00 AM on Wednesday 26 Nov 2014 (Local Time) from CYHZ Reporting Station
Overcast Overcast  
Wind Chill: 41°   Ceiling: 14000
Heat Index: 45°   Visibility: 15mi
Dew Point: 32°   Wind: 7mph
Humidity: 61%   Direction: 310°NW
Pressure: 30.17"   Gusts: NA
Location:  45.42°N, 63.6°W
Report Text: CYHZ 261300Z 31006KT 15SM OVC140 07/M00 A3017 RMK AC8 SLP219
Loading
Personal Weather Stations






























Interactive Weather Map New forecast layout! Learn more

10-Day Weather Forecast

Advertisements
Track Severe Weather on mobile